createdAt,value
2018-05-24T00:00:04.983Z,0.00
2018-05-24T00:01:05.013Z,0.00
2018-05-24T00:02:05.037Z,0.00
2018-05-24T00:03:05.063Z,0.00
2018-05-24T00:04:05.094Z,0.00
2018-05-24T00:05:05.119Z,0.00
2018-05-24T00:06:05.148Z,0.00
2018-05-24T00:07:05.173Z,0.00
2018-05-24T00:08:05.203Z,0.00
2018-05-24T00:09:05.237Z,0.00
2018-05-24T00:10:05.258Z,0.00
2018-05-24T00:11:05.290Z,0.00
2018-05-24T00:12:05.312Z,0.00
2018-05-24T00:13:05.336Z,0.00
2018-05-24T00:14:05.367Z,0.00
2018-05-24T00:15:05.392Z,0.00
2018-05-24T00:16:05.417Z,0.00
2018-05-24T00:17:05.452Z,0.00
2018-05-24T00:18:05.489Z,0.00
2018-05-24T00:19:05.504Z,0.00
2018-05-24T00:20:05.535Z,0.00
2018-05-24T00:21:05.556Z,0.00
2018-05-24T00:22:05.585Z,0.00
2018-05-24T00:23:05.654Z,0.00
2018-05-24T00:24:05.636Z,0.00
2018-05-24T00:25:05.668Z,0.00
2018-05-24T00:26:05.689Z,0.00
2018-05-24T00:27:05.717Z,0.00
2018-05-24T00:28:05.746Z,0.00
2018-05-24T00:29:05.770Z,0.00
2018-05-24T00:30:05.800Z,0.00
2018-05-24T00:31:05.835Z,0.00
2018-05-24T00:32:05.856Z,0.00
2018-05-24T00:33:05.881Z,0.00
2018-05-24T00:34:05.912Z,0.00
2018-05-24T00:35:05.933Z,0.00
2018-05-24T00:36:05.959Z,0.00
2018-05-24T00:37:05.985Z,0.00
2018-05-24T00:38:06.025Z,0.00
2018-05-24T00:39:06.042Z,0.00
2018-05-24T00:40:06.067Z,0.00
2018-05-24T00:41:06.095Z,0.00
2018-05-24T00:42:06.187Z,0.00
2018-05-24T00:43:06.150Z,0.00
2018-05-24T00:44:06.184Z,0.00
2018-05-24T00:45:06.204Z,0.00
2018-05-24T00:46:06.230Z,0.00
2018-05-24T00:47:06.262Z,0.00
2018-05-24T00:48:06.284Z,0.00
2018-05-24T00:49:06.309Z,0.00
2018-05-24T00:50:06.340Z,0.00
2018-05-24T00:51:06.364Z,0.00
2018-05-24T00:52:06.397Z,0.00
2018-05-24T00:53:06.419Z,0.00
2018-05-24T00:54:06.448Z,0.00
2018-05-24T00:55:06.471Z,0.00
2018-05-24T00:56:06.524Z,0.00
2018-05-24T00:57:06.528Z,0.00
2018-05-24T00:58:06.552Z,0.00
2018-05-24T00:59:06.585Z,0.00
2018-05-24T01:00:06.609Z,0.00
2018-05-24T01:01:06.632Z,0.00
2018-05-24T01:02:06.658Z,0.00
2018-05-24T01:03:06.689Z,0.00
2018-05-24T01:04:06.716Z,0.00
2018-05-24T01:05:06.743Z,0.00
2018-05-24T01:06:06.769Z,0.00
2018-05-24T01:07:06.792Z,0.00
2018-05-24T01:08:06.824Z,0.00
2018-05-24T01:09:06.848Z,0.00
2018-05-24T01:10:06.892Z,0.00
2018-05-24T01:11:06.905Z,0.00
2018-05-24T01:12:06.927Z,0.00
2018-05-24T01:13:06.966Z,0.00
2018-05-24T01:14:06.986Z,0.00
2018-05-24T01:15:07.012Z,0.00
2018-05-24T01:16:07.042Z,0.00
2018-05-24T01:17:07.064Z,0.00
2018-05-24T01:18:07.092Z,0.00
2018-05-24T01:19:07.117Z,0.00
2018-05-24T01:20:07.143Z,0.00
2018-05-24T01:21:07.171Z,0.00
2018-05-24T01:22:07.197Z,0.00
2018-05-24T01:23:07.228Z,0.00
2018-05-24T01:24:07.250Z,0.00
2018-05-24T01:25:07.276Z,0.00
2018-05-24T01:26:07.311Z,0.00
2018-05-24T01:27:07.327Z,0.00
2018-05-24T01:28:07.361Z,0.00
2018-05-24T01:29:07.382Z,0.00
2018-05-24T01:30:07.411Z,0.00
2018-05-24T01:31:07.440Z,0.00
2018-05-24T01:32:07.462Z,0.00
2018-05-24T01:33:07.559Z,0.00
2018-05-24T01:34:07.516Z,0.00
2018-05-24T01:35:07.547Z,0.00
2018-05-24T01:36:07.576Z,0.00
2018-05-24T01:37:07.601Z,0.00
2018-05-24T01:38:07.627Z,0.00
2018-05-24T01:39:07.655Z,0.00
2018-05-24T01:40:07.676Z,0.00
2018-05-24T01:41:07.705Z,0.00
2018-05-24T01:42:07.739Z,0.00
2018-05-24T01:43:07.761Z,0.00
2018-05-24T01:44:07.781Z,0.00
2018-05-24T01:45:07.813Z,0.00
2018-05-24T01:46:07.844Z,0.00
2018-05-24T01:47:07.881Z,0.00
2018-05-24T01:48:07.895Z,0.00
2018-05-24T01:49:07.917Z,0.00
2018-05-24T01:50:07.946Z,0.00
2018-05-24T01:51:07.969Z,0.00
2018-05-24T01:52:07.999Z,0.00
2018-05-24T01:53:08.024Z,0.00
2018-05-24T01:54:08.046Z,0.00
2018-05-24T01:55:08.076Z,0.00
2018-05-24T01:56:08.100Z,0.00
2018-05-24T01:57:08.130Z,0.00
2018-05-24T01:58:08.156Z,0.00
2018-05-24T01:59:08.180Z,0.00
2018-05-24T02:00:08.208Z,0.00
2018-05-24T02:01:08.240Z,0.00
2018-05-24T02:02:08.260Z,0.00
2018-05-24T02:03:08.289Z,0.00
2018-05-24T02:04:08.314Z,0.00
2018-05-24T02:05:08.344Z,0.00
2018-05-24T02:06:08.367Z,0.00
2018-05-24T02:07:08.397Z,0.00
2018-05-24T02:08:08.421Z,0.00
2018-05-24T02:09:08.445Z,0.00
2018-05-24T02:10:08.476Z,0.00
2018-05-24T02:11:08.501Z,0.00
2018-05-24T02:12:08.530Z,0.00
2018-05-24T02:13:08.550Z,0.00
2018-05-24T02:14:08.582Z,0.00
2018-05-24T02:15:08.607Z,0.00
2018-05-24T02:16:08.632Z,0.00
2018-05-24T02:17:08.659Z,0.00
2018-05-24T02:18:08.686Z,0.00
2018-05-24T02:19:08.712Z,4.00
2018-05-24T02:20:08.744Z,4.00
2018-05-24T02:21:08.766Z,4.00
2018-05-24T02:22:08.797Z,4.00
2018-05-24T02:23:08.825Z,4.00
2018-05-24T02:24:08.855Z,0.00
2018-05-24T02:25:08.872Z,0.00
2018-05-24T02:26:08.894Z,4.00
2018-05-24T02:27:08.929Z,4.00
2018-05-24T02:28:08.949Z,4.00
2018-05-24T02:29:09.052Z,8.00
2018-05-24T02:30:09.005Z,4.00
2018-05-24T02:31:09.029Z,4.00
2018-05-24T02:32:09.055Z,8.00
2018-05-24T02:33:09.079Z,4.00
2018-05-24T02:34:09.109Z,8.00
2018-05-24T02:35:09.134Z,8.00
2018-05-24T02:36:09.159Z,8.00
2018-05-24T02:37:09.185Z,8.00
2018-05-24T02:38:09.214Z,8.00
2018-05-24T02:39:09.239Z,12.00
2018-05-24T02:40:09.266Z,12.00
2018-05-24T02:41:09.293Z,12.00
2018-05-24T02:42:09.318Z,16.00
2018-05-24T02:43:09.347Z,16.00
2018-05-24T02:44:09.422Z,24.00
2018-05-24T02:45:09.397Z,24.00
2018-05-24T02:46:09.423Z,28.00
2018-05-24T02:47:09.454Z,32.00
2018-05-24T02:48:09.473Z,36.00
2018-05-24T02:49:09.503Z,36.00
2018-05-24T02:50:09.528Z,40.00
2018-05-24T02:51:09.559Z,48.00
2018-05-24T02:52:09.578Z,52.00
2018-05-24T02:53:09.605Z,60.00
2018-05-24T02:54:09.637Z,68.00
2018-05-24T02:55:09.658Z,76.00
2018-05-24T02:56:09.687Z,84.00
2018-05-24T02:57:09.712Z,92.00
2018-05-24T02:58:09.737Z,100.00
2018-05-24T02:59:09.785Z,112.00
2018-05-24T03:00:09.793Z,124.00
2018-05-24T03:01:09.817Z,136.00
2018-05-24T03:02:09.847Z,144.00
2018-05-24T03:03:09.872Z,160.00
2018-05-24T03:04:09.897Z,172.00
2018-05-24T03:05:09.923Z,188.00
2018-05-24T03:06:09.957Z,204.00
2018-05-24T03:07:09.978Z,220.00
2018-05-24T03:08:10.011Z,240.00
2018-05-24T03:09:10.032Z,256.00
2018-05-24T03:10:10.062Z,276.00
2018-05-24T03:11:10.082Z,296.00
2018-05-24T03:12:10.107Z,320.00
2018-05-24T03:13:10.137Z,340.00
2018-05-24T03:14:10.163Z,360.00
2018-05-24T03:15:10.281Z,384.00
2018-05-24T03:16:10.212Z,408.00
2018-05-24T03:17:10.236Z,432.00
2018-05-24T03:18:10.266Z,456.00
2018-05-24T03:19:10.296Z,484.00
2018-05-24T03:20:10.315Z,512.00
2018-05-24T03:21:10.347Z,536.00
2018-05-24T03:22:10.374Z,564.00
2018-05-24T03:23:10.397Z,592.00
2018-05-24T03:24:10.429Z,620.00
2018-05-24T03:25:10.454Z,648.00
2018-05-24T03:26:10.475Z,684.00
2018-05-24T03:27:10.506Z,712.00
2018-05-24T03:28:10.531Z,740.00
2018-05-24T03:29:10.555Z,772.00
2018-05-24T03:30:10.582Z,804.00
2018-05-24T03:31:10.608Z,832.00
2018-05-24T03:32:10.635Z,860.00
2018-05-24T03:33:10.660Z,892.00
2018-05-24T03:34:10.687Z,924.00
2018-05-24T03:35:10.757Z,952.00
2018-05-24T03:36:10.741Z,980.00
2018-05-24T03:37:10.765Z,1012.00
2018-05-24T03:38:10.795Z,1044.00
2018-05-24T03:39:10.821Z,1072.00
2018-05-24T03:40:10.848Z,1100.00
2018-05-24T03:41:10.872Z,1132.00
2018-05-24T03:42:10.902Z,1160.00
2018-05-24T03:43:10.925Z,1188.00
2018-05-24T03:44:10.955Z,1220.00
2018-05-24T03:45:10.975Z,1248.00
2018-05-24T03:46:11.005Z,1276.00
2018-05-24T03:47:11.041Z,1304.00
2018-05-24T03:48:11.057Z,1332.00
2018-05-24T03:49:11.082Z,1360.00
2018-05-24T03:50:11.109Z,1388.00
2018-05-24T03:51:11.136Z,1412.00
2018-05-24T03:52:11.255Z,1436.00
2018-05-24T03:53:11.184Z,1468.00
2018-05-24T03:54:11.218Z,1492.00
2018-05-24T03:55:11.236Z,1520.00
2018-05-24T03:56:11.268Z,1548.00
2018-05-24T03:57:11.289Z,1576.00
2018-05-24T03:58:11.319Z,1596.00
2018-05-24T03:59:11.343Z,1624.00
2018-05-24T04:00:11.367Z,1644.00
2018-05-24T04:01:11.396Z,1668.00
2018-05-24T04:02:11.423Z,1692.00
2018-05-24T04:03:11.449Z,1716.00
2018-05-24T04:04:11.473Z,1740.00
2018-05-24T04:05:11.500Z,1764.00
2018-05-24T04:06:11.525Z,1788.00
2018-05-24T04:07:11.552Z,1808.00
2018-05-24T04:08:11.584Z,1832.00
2018-05-24T04:09:11.603Z,1856.00
2018-05-24T04:10:11.636Z,1876.00
2018-05-24T04:11:11.664Z,1892.00
2018-05-24T04:12:11.685Z,1916.00
2018-05-24T04:13:11.713Z,1936.00
2018-05-24T04:14:11.737Z,1956.00
2018-05-24T04:15:11.767Z,1976.00
2018-05-24T04:16:11.789Z,2000.00
2018-05-24T04:17:11.822Z,2020.00
2018-05-24T04:18:11.927Z,2040.00
2018-05-24T04:19:11.870Z,2056.00
2018-05-24T04:20:11.891Z,2072.00
2018-05-24T04:21:11.923Z,2096.00
2018-05-24T04:22:11.952Z,2108.00
2018-05-24T04:23:11.977Z,2132.00
2018-05-24T04:24:11.997Z,2144.00
2018-05-24T04:25:12.024Z,2164.00
2018-05-24T04:26:12.053Z,2180.00
2018-05-24T04:27:12.078Z,2200.00
2018-05-24T04:28:12.103Z,2212.00
2018-05-24T04:29:12.131Z,2232.00
2018-05-24T04:30:12.158Z,2248.00
2018-05-24T04:31:12.181Z,2260.00
2018-05-24T04:32:12.213Z,2280.00
2018-05-24T04:33:12.237Z,2296.00
2018-05-24T04:34:12.262Z,2308.00
2018-05-24T04:35:12.290Z,2320.00
2018-05-24T04:36:12.310Z,2332.00
2018-05-24T04:37:12.341Z,2348.00
2018-05-24T04:38:12.366Z,2356.00
2018-05-24T04:39:12.391Z,2380.00
2018-05-24T04:40:12.426Z,2392.00
2018-05-24T04:41:12.450Z,2412.00
2018-05-24T04:42:12.475Z,2416.00
2018-05-24T04:43:12.499Z,2428.00
2018-05-24T04:44:12.525Z,2444.00
2018-05-24T04:45:12.565Z,2456.00
2018-05-24T04:46:12.578Z,2468.00
2018-05-24T04:47:12.606Z,2484.00
2018-05-24T04:48:12.627Z,2500.00
2018-05-24T04:49:12.658Z,2504.00
2018-05-24T04:50:12.681Z,2516.00
2018-05-24T04:51:12.705Z,2528.00
2018-05-24T04:52:12.830Z,2540.00
2018-05-24T04:53:12.760Z,2556.00
2018-05-24T04:54:12.799Z,2564.00
2018-05-24T04:55:12.816Z,2576.00
2018-05-24T04:56:12.840Z,2584.00
2018-05-24T04:57:12.865Z,2600.00
2018-05-24T04:58:12.895Z,2604.00
2018-05-24T04:59:12.919Z,2616.00
2018-05-24T05:00:12.949Z,2624.00
2018-05-24T05:01:12.969Z,2632.00
2018-05-24T05:02:12.998Z,2644.00
2018-05-24T05:03:13.029Z,2648.00
2018-05-24T05:04:13.053Z,2664.00
2018-05-24T05:05:13.074Z,2680.00
2018-05-24T05:06:13.103Z,2684.00
2018-05-24T05:07:13.129Z,2688.00
2018-05-24T05:08:13.154Z,2692.00
2018-05-24T05:09:13.187Z,2712.00
2018-05-24T05:10:13.212Z,2716.00
2018-05-24T05:11:13.238Z,2724.00
2018-05-24T05:12:13.266Z,2740.00
2018-05-24T05:13:13.291Z,2748.00
2018-05-24T05:14:13.315Z,2756.00
2018-05-24T05:15:13.346Z,2764.00
2018-05-24T05:16:13.371Z,2776.00
2018-05-24T05:17:13.394Z,2784.00
2018-05-24T05:18:13.421Z,2788.00
2018-05-24T05:19:13.452Z,2796.00
2018-05-24T05:20:13.477Z,2808.00
2018-05-24T05:21:13.500Z,2816.00
2018-05-24T05:22:13.526Z,2828.00
2018-05-24T05:23:13.636Z,2832.00
2018-05-24T05:24:13.578Z,2840.00
2018-05-24T05:25:13.685Z,2840.00
2018-05-24T05:26:13.628Z,2852.00
2018-05-24T05:27:13.665Z,2856.00
2018-05-24T05:28:13.692Z,2864.00
2018-05-24T05:29:13.713Z,2868.00
2018-05-24T05:30:13.750Z,2876.00
2018-05-24T05:31:13.767Z,2880.00
2018-05-24T05:32:13.795Z,2892.00
2018-05-24T05:33:13.819Z,2896.00
2018-05-24T05:34:13.849Z,2908.00
2018-05-24T05:35:13.877Z,2908.00
2018-05-24T05:36:13.895Z,2916.00
2018-05-24T05:37:13.924Z,2916.00
2018-05-24T05:38:13.992Z,2932.00
2018-05-24T05:39:13.978Z,2940.00
2018-05-24T05:40:14.008Z,2944.00
2018-05-24T05:41:14.029Z,2956.00
2018-05-24T05:42:14.060Z,2960.00
2018-05-24T05:43:14.088Z,2964.00
2018-05-24T05:44:14.109Z,2972.00
2018-05-24T05:45:14.134Z,2980.00
2018-05-24T05:46:14.166Z,2984.00
2018-05-24T05:47:14.188Z,2988.00
2018-05-24T05:48:14.218Z,2992.00
2018-05-24T05:49:14.244Z,2996.00
2018-05-24T05:50:14.282Z,3004.00
2018-05-24T05:51:14.301Z,3008.00
2018-05-24T05:52:14.324Z,3008.00
2018-05-24T05:53:14.347Z,3012.00
2018-05-24T05:54:14.376Z,3020.00
2018-05-24T05:55:14.406Z,3028.00
2018-05-24T05:56:14.428Z,3036.00
2018-05-24T05:57:14.458Z,3048.00
2018-05-24T05:58:14.483Z,3048.00
2018-05-24T05:59:14.508Z,3056.00
2018-05-24T06:00:14.543Z,3060.00
2018-05-24T06:01:14.562Z,3064.00
2018-05-24T06:02:14.593Z,3072.00
2018-05-24T06:03:14.618Z,3072.00
2018-05-24T06:04:14.643Z,3076.00
2018-05-24T06:05:14.671Z,3080.00
2018-05-24T06:06:14.697Z,3088.00
2018-05-24T06:07:14.731Z,3088.00
2018-05-24T06:08:14.756Z,3092.00
2018-05-24T06:09:14.778Z,3104.00
2018-05-24T06:10:14.811Z,3104.00
2018-05-24T06:11:14.911Z,3116.00
2018-05-24T06:12:14.856Z,3116.00
2018-05-24T06:13:14.883Z,3120.00
2018-05-24T06:14:14.911Z,3132.00
2018-05-24T06:15:14.937Z,3132.00
2018-05-24T06:16:14.968Z,3144.00
2018-05-24T06:17:14.992Z,3152.00
2018-05-24T06:18:15.017Z,3152.00
2018-05-24T06:19:15.049Z,3160.00
2018-05-24T06:20:15.073Z,3160.00
2018-05-24T06:21:15.102Z,3168.00
2018-05-24T06:22:15.136Z,3172.00
2018-05-24T06:23:15.155Z,3172.00
2018-05-24T06:24:15.187Z,3180.00
2018-05-24T06:25:15.205Z,3176.00
2018-05-24T06:26:15.236Z,3176.00
2018-05-24T06:27:15.262Z,3180.00
2018-05-24T06:28:15.287Z,3148.00
2018-05-24T06:29:15.316Z,3188.00
2018-05-24T06:30:15.340Z,3200.00
2018-05-24T06:31:15.372Z,3196.00
2018-05-24T06:32:15.396Z,3200.00
2018-05-24T06:33:15.427Z,3208.00
2018-05-24T06:34:15.450Z,3212.00
2018-05-24T06:35:15.482Z,3212.00
2018-05-24T06:36:15.510Z,3224.00
2018-05-24T06:37:15.617Z,3220.00
2018-05-24T06:38:15.564Z,3220.00
2018-05-24T06:39:15.589Z,3224.00
2018-05-24T06:40:15.618Z,3224.00
2018-05-24T06:41:15.637Z,3224.00
2018-05-24T06:42:15.668Z,3220.00
2018-05-24T06:43:15.695Z,3236.00
2018-05-24T06:44:15.720Z,3240.00
2018-05-24T06:45:15.756Z,3244.00
2018-05-24T06:46:15.780Z,3252.00
2018-05-24T06:47:15.809Z,3204.00
2018-05-24T06:48:15.831Z,3260.00
2018-05-24T06:49:15.860Z,3260.00
2018-05-24T06:50:15.886Z,3260.00
2018-05-24T06:51:15.915Z,3260.00
2018-05-24T06:52:15.937Z,3264.00
2018-05-24T06:53:15.966Z,3268.00
2018-05-24T06:54:15.993Z,3268.00
2018-05-24T06:55:16.024Z,3280.00
2018-05-24T06:56:16.051Z,3280.00
2018-05-24T06:57:16.078Z,3284.00
2018-05-24T06:58:16.103Z,3280.00
2018-05-24T06:59:16.129Z,3292.00
2018-05-24T07:00:16.153Z,3288.00
2018-05-24T07:01:16.187Z,3292.00
2018-05-24T07:02:16.209Z,3304.00
2018-05-24T07:03:16.244Z,3308.00
2018-05-24T07:04:16.274Z,3304.00
2018-05-24T07:05:16.288Z,3304.00
2018-05-24T07:06:16.330Z,3300.00
2018-05-24T07:07:16.348Z,3308.00
2018-05-24T07:08:16.374Z,3304.00
2018-05-24T07:09:16.408Z,3316.00
2018-05-24T07:10:16.433Z,3316.00
2018-05-24T07:11:16.465Z,3312.00
2018-05-24T07:12:16.482Z,3312.00
2018-05-24T07:13:16.513Z,3316.00
2018-05-24T07:14:16.541Z,3412.00
2018-05-24T07:15:16.570Z,3320.00
2018-05-24T07:16:16.595Z,3320.00
2018-05-24T07:17:16.628Z,3316.00
2018-05-24T07:18:16.649Z,3328.00
2018-05-24T07:19:16.677Z,3332.00
2018-05-24T07:20:16.705Z,3348.00
2018-05-24T07:21:16.729Z,3344.00
2018-05-24T07:22:16.759Z,3344.00
2018-05-24T07:23:16.781Z,3348.00
2018-05-24T07:24:16.814Z,3352.00
2018-05-24T07:25:16.840Z,3356.00
2018-05-24T07:26:16.868Z,3356.00
2018-05-24T07:27:16.933Z,3368.00
2018-05-24T07:28:16.926Z,3368.00
2018-05-24T07:29:16.951Z,3360.00
2018-05-24T07:30:16.980Z,3368.00
2018-05-24T07:31:17.003Z,3392.00
2018-05-24T07:32:17.035Z,3380.00
2018-05-24T07:33:17.062Z,3384.00
2018-05-24T07:34:17.087Z,3380.00
2018-05-24T07:35:17.114Z,3388.00
2018-05-24T07:36:17.144Z,3380.00
2018-05-24T07:37:17.167Z,3392.00
2018-05-24T07:38:17.198Z,3392.00
2018-05-24T07:39:17.223Z,3396.00
2018-05-24T07:40:17.247Z,3404.00
2018-05-24T07:41:17.278Z,3416.00
2018-05-24T07:42:17.308Z,3420.00
2018-05-24T07:43:17.333Z,3424.00
2018-05-24T07:44:17.361Z,3436.00
2018-05-24T07:45:17.392Z,3436.00
2018-05-24T07:46:17.424Z,3452.00
2018-05-24T07:47:17.453Z,3500.00
2018-05-24T07:48:17.472Z,3464.00
2018-05-24T07:49:17.497Z,3476.00
2018-05-24T07:50:17.529Z,3476.00
2018-05-24T07:51:17.554Z,3492.00
2018-05-24T07:52:17.586Z,3524.00
2018-05-24T07:53:17.612Z,3524.00
2018-05-24T07:54:17.637Z,3512.00
2018-05-24T07:55:17.668Z,3516.00
2018-05-24T07:56:17.691Z,3532.00
2018-05-24T07:57:17.722Z,3524.00
2018-05-24T07:58:17.746Z,3536.00
2018-05-24T07:59:17.773Z,3532.00
2018-05-24T08:00:17.803Z,3544.00
2018-05-24T08:01:17.831Z,3544.00
2018-05-24T08:02:17.864Z,3560.00
2018-05-24T08:03:17.889Z,3568.00
2018-05-24T08:04:17.910Z,3568.00
2018-05-24T08:05:17.942Z,3584.00
2018-05-24T08:06:17.970Z,3560.00
2018-05-24T08:07:18.004Z,3580.00
2018-05-24T08:08:18.026Z,3580.00
2018-05-24T08:09:18.066Z,3588.00
2018-05-24T08:10:18.086Z,3600.00
2018-05-24T08:11:18.108Z,3604.00
2018-05-24T08:12:18.137Z,3664.00
2018-05-24T08:13:18.163Z,3608.00
2018-05-24T08:14:18.191Z,3620.00
2018-05-24T08:15:18.221Z,3608.00
2018-05-24T08:16:18.241Z,3612.00
2018-05-24T08:17:18.271Z,3624.00
2018-05-24T08:18:18.304Z,3620.00
2018-05-24T08:19:18.331Z,3632.00
2018-05-24T08:20:18.362Z,3608.00
2018-05-24T08:21:18.383Z,3596.00
2018-05-24T08:22:18.409Z,3616.00
2018-05-24T08:23:18.443Z,3604.00
2018-05-24T08:24:18.467Z,3608.00
2018-05-24T08:25:18.496Z,3612.00
2018-05-24T08:26:18.529Z,3608.00
2018-05-24T08:27:18.550Z,3620.00
2018-05-24T08:28:18.584Z,3624.00
2018-05-24T08:29:18.609Z,3628.00
2018-05-24T08:30:18.641Z,3628.00
2018-05-24T08:31:18.660Z,3632.00
2018-05-24T08:32:18.703Z,3640.00
2018-05-24T08:33:18.719Z,3648.00
2018-05-24T08:34:18.794Z,3648.00
2018-05-24T08:35:18.776Z,3668.00
2018-05-24T08:36:18.800Z,3776.00
2018-05-24T08:37:18.834Z,3684.00
2018-05-24T08:38:18.858Z,3692.00
2018-05-24T08:39:18.892Z,3684.00
2018-05-24T08:40:18.914Z,3672.00
2018-05-24T08:41:18.952Z,3564.00
2018-05-24T08:42:18.970Z,3544.00
2018-05-24T08:43:19.000Z,3560.00
2018-05-24T08:44:19.024Z,3032.00
2018-05-24T08:45:19.054Z,3040.00
2018-05-24T08:46:19.076Z,3048.00
2018-05-24T08:47:19.189Z,3064.00
2018-05-24T08:48:19.133Z,3616.00
2018-05-24T08:49:19.168Z,3632.00
2018-05-24T08:50:19.194Z,3656.00
2018-05-24T08:51:19.219Z,3628.00
2018-05-24T08:52:19.256Z,3628.00
2018-05-24T08:53:19.335Z,3632.00
2018-05-24T08:54:19.315Z,3632.00
2018-05-24T08:55:19.334Z,3640.00
2018-05-24T08:56:19.363Z,3612.00
2018-05-24T08:57:19.387Z,3656.00
2018-05-24T08:58:19.414Z,3664.00
2018-05-24T08:59:19.444Z,3684.00
2018-05-24T09:00:19.468Z,3692.00
2018-05-24T09:01:19.650Z,3704.00
2018-05-24T09:02:19.524Z,3724.00
2018-05-24T09:03:19.553Z,3716.00
2018-05-24T09:04:19.584Z,3724.00
2018-05-24T09:05:19.617Z,3728.00
2018-05-24T09:06:19.638Z,3744.00
2018-05-24T09:07:19.676Z,3760.00
2018-05-24T09:08:19.694Z,3756.00
2018-05-24T09:09:19.726Z,4156.00
2018-05-24T09:10:19.753Z,4176.00
2018-05-24T09:11:19.780Z,4164.00
2018-05-24T09:12:19.812Z,4168.00
2018-05-24T09:13:19.836Z,4184.00
2018-05-24T09:14:19.868Z,4188.00
2018-05-24T09:15:19.894Z,4208.00
2018-05-24T09:16:19.917Z,4200.00
2018-05-24T09:17:19.948Z,4212.00
2018-05-24T09:18:19.977Z,4216.00
2018-05-24T09:19:20.004Z,4232.00
2018-05-24T09:20:20.028Z,4224.00
2018-05-24T09:21:20.060Z,4248.00
2018-05-24T09:22:20.091Z,4260.00
2018-05-24T09:23:20.113Z,4280.00
2018-05-24T09:24:20.144Z,4296.00
2018-05-24T09:25:20.179Z,4312.00
2018-05-24T09:26:20.200Z,4328.00
2018-05-24T09:27:20.232Z,4340.00
2018-05-24T09:28:20.257Z,4360.00
2018-05-24T09:29:20.302Z,4372.00
2018-05-24T09:30:20.316Z,4372.00
2018-05-24T09:31:20.338Z,4396.00
2018-05-24T09:32:20.370Z,4420.00
2018-05-24T09:33:20.398Z,4584.00
2018-05-24T09:34:20.423Z,4564.00
2018-05-24T09:35:20.455Z,4484.00
2018-05-24T09:36:20.496Z,4480.00
2018-05-24T09:37:20.515Z,4488.00
2018-05-24T09:38:20.541Z,4500.00
2018-05-24T09:39:20.565Z,4520.00
2018-05-24T09:40:20.593Z,4524.00
2018-05-24T09:41:20.623Z,4560.00
2018-05-24T09:42:20.746Z,4552.00
2018-05-24T09:43:20.683Z,4580.00
2018-05-24T09:44:20.715Z,4584.00
2018-05-24T09:45:20.734Z,4612.00
2018-05-24T09:46:20.772Z,4632.00
2018-05-24T09:47:20.794Z,4644.00
2018-05-24T09:48:20.826Z,4648.00
2018-05-24T09:49:20.849Z,4644.00
2018-05-24T09:50:20.876Z,4640.00
2018-05-24T09:51:20.905Z,4636.00
2018-05-24T09:52:20.936Z,4680.00
2018-05-24T09:53:20.962Z,4720.00
2018-05-24T09:54:20.993Z,4736.00
2018-05-24T09:55:21.056Z,4748.00
2018-05-24T09:56:21.046Z,4744.00
2018-05-24T09:57:21.075Z,4756.00
2018-05-24T09:58:21.102Z,4764.00
2018-05-24T09:59:21.131Z,4764.00
2018-05-24T10:00:21.156Z,4784.00
2018-05-24T10:01:21.191Z,4800.00
2018-05-24T10:02:21.218Z,4816.00
2018-05-24T10:03:21.245Z,4840.00
2018-05-24T10:04:21.271Z,4844.00
2018-05-24T10:05:21.308Z,4860.00
2018-05-24T10:06:21.336Z,4896.00
2018-05-24T10:07:21.359Z,4920.00
2018-05-24T10:08:21.391Z,4948.00
2018-05-24T10:09:21.415Z,4964.00
2018-05-24T10:10:21.450Z,4988.00
2018-05-24T10:11:21.473Z,5016.00
2018-05-24T10:12:21.501Z,5044.00
2018-05-24T10:13:21.546Z,5096.00
2018-05-24T10:14:21.564Z,5124.00
2018-05-24T10:15:21.803Z,5196.00
2018-05-24T10:16:21.833Z,5224.00
2018-05-24T10:17:21.644Z,5260.00
2018-05-24T10:18:21.671Z,5284.00
2018-05-24T10:19:21.700Z,5340.00
2018-05-24T10:22:21.788Z,5412.00
2018-05-24T10:23:21.815Z,5432.00
2018-05-24T10:24:21.841Z,5488.00
2018-05-24T10:25:21.875Z,5524.00
2018-05-24T10:26:21.902Z,5596.00
2018-05-24T10:27:21.930Z,5660.00
2018-05-24T10:28:21.964Z,5720.00
2018-05-24T10:29:22.065Z,5792.00
2018-05-24T10:30:22.024Z,5848.00
2018-05-24T10:31:22.041Z,5884.00
2018-05-24T10:32:22.069Z,5992.00
2018-05-24T10:33:22.104Z,6080.00
2018-05-24T10:34:22.129Z,6112.00
2018-05-24T10:36:22.410Z,6232.00
2018-05-24T10:37:22.233Z,6272.00
2018-05-24T10:38:22.468Z,6348.00
2018-05-24T11:01:22.912Z,37120.00
2018-05-24T11:02:22.944Z,37344.00
2018-05-24T11:15:43.752Z,42432.00
2018-05-24T11:16:43.783Z,43488.00
2018-05-24T11:17:43.813Z,43520.00
2018-05-24T11:18:43.851Z,44160.00
2018-05-24T11:19:43.886Z,44576.00
2018-05-24T11:20:43.921Z,44928.00
2018-05-24T11:21:43.953Z,45664.00
2018-05-24T11:22:43.988Z,45600.00
2018-05-24T11:23:44.028Z,45248.00
2018-05-24T11:24:44.062Z,45600.00
2018-05-24T11:25:44.097Z,46048.00
2018-05-24T11:26:44.132Z,46400.00
2018-05-24T11:27:44.173Z,47136.00
2018-05-24T11:28:44.202Z,48192.00
2018-05-24T11:29:44.242Z,49504.00
2018-05-24T11:30:44.281Z,50592.00
2018-05-24T11:31:44.421Z,49792.00
2018-05-24T11:32:44.355Z,48864.00
2018-05-24T11:33:44.392Z,47776.00
2018-05-24T11:34:44.422Z,49440.00
2018-05-24T11:35:44.458Z,50336.00
2018-05-24T11:36:44.499Z,50912.00
2018-05-24T11:37:44.538Z,51104.00
2018-05-24T11:38:44.572Z,51552.00
2018-05-24T11:39:44.611Z,52064.00
2018-05-24T11:40:44.658Z,52672.00
2018-05-24T11:41:44.683Z,54336.00
2018-05-24T11:42:44.723Z,54368.00
2018-05-24T11:43:44.829Z,54304.00
2018-05-24T11:44:44.797Z,54528.00
2018-05-24T11:45:44.842Z,52576.00
2018-05-24T11:46:44.873Z,54720.00
2018-05-24T11:47:44.911Z,55648.00
2018-05-24T11:48:44.951Z,56192.00
2018-05-24T11:49:44.986Z,56800.00
2018-05-24T11:50:45.030Z,56960.00
2018-05-24T11:51:45.067Z,57152.00
2018-05-24T11:52:45.101Z,57536.00
2018-05-24T11:53:45.140Z,58272.00
2018-05-24T11:54:45.188Z,57216.00
2018-05-24T11:55:45.219Z,56096.00
2018-05-24T11:56:45.261Z,61088.00
2018-05-24T11:57:45.297Z,61472.00
2018-05-24T11:58:45.335Z,60672.00
2018-05-24T11:59:45.374Z,63136.00
2018-05-24T12:00:45.424Z,64384.00
2018-05-24T12:01:45.497Z,64800.00
2018-05-24T12:02:45.497Z,63904.00
2018-05-24T12:03:45.534Z,63072.00
2018-05-24T12:04:45.569Z,65056.00
2018-05-24T12:05:45.612Z,67520.00
2018-05-24T12:06:45.651Z,64544.00
2018-05-24T12:07:45.691Z,62496.00
2018-05-24T12:08:45.730Z,62720.00
2018-05-24T12:09:45.867Z,63136.00
2018-05-24T12:10:45.804Z,64192.00
2018-05-24T12:11:45.849Z,65248.00
2018-05-24T12:12:45.888Z,69184.00
2018-05-24T12:13:45.928Z,70336.00
2018-05-24T12:14:45.966Z,65984.00
2018-05-24T12:15:46.009Z,63584.00
2018-05-24T12:16:46.046Z,65408.00
2018-05-24T12:17:46.087Z,64448.00
2018-05-24T12:18:46.135Z,62848.00
2018-05-24T12:19:46.174Z,62112.00
2018-05-24T12:20:46.207Z,60000.00
2018-05-24T12:21:46.245Z,58944.00
2018-05-24T12:22:46.284Z,57856.00
2018-05-24T12:23:46.365Z,58496.00
2018-05-24T12:24:46.366Z,58368.00
2018-05-24T12:25:46.411Z,58336.00
2018-05-24T12:26:46.449Z,58560.00
2018-05-24T12:27:46.493Z,59584.00
2018-05-24T12:28:46.540Z,61952.00
2018-05-24T12:29:46.576Z,62944.00
2018-05-24T12:30:46.619Z,73952.00
2018-05-24T12:31:46.658Z,76000.00
2018-05-24T12:32:46.696Z,74880.00
2018-05-24T12:33:46.739Z,78240.00
2018-05-24T12:34:46.782Z,60160.00
2018-05-24T12:35:46.820Z,47360.00
2018-05-24T12:36:46.868Z,53664.00
2018-05-24T12:37:46.907Z,49088.00
2018-05-24T12:38:46.945Z,53248.00
2018-05-24T12:39:46.985Z,53696.00
2018-05-24T12:40:47.024Z,52768.00
2018-05-24T12:41:47.095Z,57952.00
2018-05-24T12:42:47.104Z,64608.00
2018-05-24T12:43:47.146Z,68800.00
2018-05-24T12:44:47.191Z,68832.00
2018-05-24T12:45:47.224Z,60128.00
2018-05-24T12:46:47.264Z,55168.00
2018-05-24T12:47:47.311Z,54368.00
2018-05-24T12:48:47.345Z,49440.00
2018-05-24T12:49:47.384Z,54752.00
2018-05-24T12:50:47.421Z,57088.00
2018-05-24T12:51:47.465Z,52032.00
2018-05-24T12:52:47.504Z,44512.00
2018-05-24T12:53:47.544Z,45952.00
2018-05-24T12:54:47.580Z,47584.00
2018-05-24T12:55:47.624Z,46208.00
2018-05-24T12:56:47.657Z,44352.00